Archival Weather

Norman Y Mineta San Jose Intl

San Jose, California (KSJC)

Report from: Wednesday, February 7, 2024 12:25 PM PST
Current time: Monday, June 24, 2024 2:39 AM PDT

Current weather – Weather history – Daily summaries
Weather forecast

Present weatherRain
Temperature10.0°C (50.0°F)
Wind chill7.5°C (45.6°F)
Dew point6.7°C (44.1°F)
Winds 10 kts (5.1 m/s, 11.5 mph) Southwest (220°)
Visibility4 mi. (6.4 km)
Clouds Few clouds 700 ft. (213 m)
Ceiling: Broken clouds 2,700 ft. (823 m)
Overcast 3,600 ft. (1,097 m)
Altimeter29.79 in.Hg (1009 mB)
Precipitiation0.15 in. (4 mm)
Relative humidity80 %
Density altitude-305 ft. (-93 m)
Remarks Automated weather observing station with precipitation discriminator
Flight conditions Marginal Visual Meteorological Conditions
Raw dataKSJC 072025Z 22010KT 4SM RA FEW007 BKN027 OVC036 10/07 A2979 RMK AO2 WSHFT 2005 P0015 T01000067
An error has occurred. This application may no longer respond until reloaded. Reload 🗙